Home > Products > Valid Products > TAF

000
FTUS41 KILN 291400 AAA
TAFCVG
TAF AMD
KCVG 291457Z 2915/3018 18012KT P6SM SCT200
     FM291600 18012G20KT P6SM SCT200
     FM291800 18015G25KT P6SM BKN150
     FM292200 20010G18KT P6SM -SHRA SCT050 OVC080
     FM300500 23010KT P6SM VCSH SCT012 OVC022
     FM300900 27010KT P6SM SCT250=



000
FTUS41 KILN 291400 AAA
TAFCVG
TAF AMD
KCVG 291457Z 2915/3018 18012KT P6SM SCT200
     FM291600 18012G20KT P6SM SCT200
     FM291800 18015G25KT P6SM BKN150
     FM292200 20010G18KT P6SM -SHRA SCT050 OVC080
     FM300500 23010KT P6SM VCSH SCT012 OVC022
     FM300900 27010KT P6SM SCT250=



000
FTUS41 KILN 291100
TAFCVG
TAF
KCVG 291126Z 2912/3018 18006KT P6SM SKC
     FM291300 18010KT P6SM SCT200
     FM291600 18012G22KT P6SM BKN150
     FM292200 20010KT P6SM -SHRA SCT050 OVC080
     FM300500 23010KT P6SM VCSH SCT012 OVC022
     FM300900 27010KT P6SM SCT250=



000
FTUS41 KILN 291100
TAFCMH
TAF
KCMH 291126Z 2912/3012 17003KT P6SM SKC
     FM291400 18010KT P6SM SCT200
     FM291700 18015G23KT P6SM BKN150
     FM292300 19010KT P6SM -SHRA SCT050 OVC080
     FM300700 21010KT P6SM VCSH SCT015 OVC025
     FM301100 26010KT P6SM SCT025 SCT250=



000
FTUS41 KILN 291100
TAFDAY
TAF
KDAY 291126Z 2912/3012 18012KT P6SM SCT200
     FM291500 19015G23KT P6SM BKN150
     FM292200 20012KT P6SM -SHRA SCT050 OVC080
     FM300500 23010KT P6SM VCSH SCT012 OVC025
     FM300800 27010KT P6SM SCT250=



000
FTUS41 KILN 291100
TAFILN
TAF
KILN 291126Z 2912/3012 18005KT P6SM SKC
     FM291300 18012KT P6SM BKN200
     FM291600 19014G22KT P6SM BKN150
     FM292300 19010KT P6SM -SHRA SCT050 OVC080
     FM300600 22010KT P6SM VCSH SCT010 OVC022
     FM301000 26010KT P6SM SCT250=



000
FTUS41 KILN 291100
TAFLCK
TAF
KLCK 291126Z 2912/3012 17003KT P6SM SKC
     FM291400 18009KT P6SM SCT200
     FM291700 18014G22KT P6SM BKN150
     FM292300 19009KT P6SM -SHRA SCT050 OVC080
     FM300700 21010KT P6SM VCSH SCT015 OVC025
     FM301100 26010KT P6SM SCT025 SCT250=



000
FTUS41 KILN 291100
TAFILN
TAF
KILN 291126Z 2912/3012 18005KT P6SM SKC
     FM291300 18012KT P6SM BKN200
     FM291600 19014G22KT P6SM BKN150
     FM292300 19010KT P6SM -SHRA SCT050 OVC080
     FM300600 22010KT P6SM VCSH SCT010 OVC022
     FM301000 26010KT P6SM SCT250=



000
FTUS41 KILN 291100
TAFLUK
TAF
KLUK 291126Z 2912/3012 18003KT P6SM SKC
     FM291300 18008KT P6SM SCT200
     FM291600 19012G20KT P6SM BKN150
     FM292200 20009KT P6SM -SHRA SCT050 OVC080
     FM300500 23010KT P6SM VCSH SCT015 OVC025
     FM300900 26010KT P6SM SCT250=



000
FTUS41 KILN 291100
TAFCVG
TAF
KCVG 291126Z 2912/3018 18006KT P6SM SKC
     FM291300 18010KT P6SM SCT200
     FM291600 18012G22KT P6SM BKN150
     FM292200 20010KT P6SM -SHRA SCT050 OVC080
     FM300500 23010KT P6SM VCSH SCT012 OVC022
     FM300900 27010KT P6SM SCT250=



000
FTUS41 KILN 291100
TAFLUK
TAF
KLUK 291126Z 2912/3012 18003KT P6SM SKC
     FM291300 18008KT P6SM SCT200
     FM291600 19012G20KT P6SM BKN150
     FM292200 20009KT P6SM -SHRA SCT050 OVC080
     FM300500 23010KT P6SM VCSH SCT015 OVC025
     FM300900 26010KT P6SM SCT250=



000
FTUS41 KILN 291100
TAFCMH
TAF
KCMH 291126Z 2912/3012 17003KT P6SM SKC
     FM291400 18010KT P6SM SCT200
     FM291700 18015G23KT P6SM BKN150
     FM292300 19010KT P6SM -SHRA SCT050 OVC080
     FM300700 21010KT P6SM VCSH SCT015 OVC025
     FM301100 26010KT P6SM SCT025 SCT250=



000
FTUS41 KILN 291100
TAFDAY
TAF
KDAY 291126Z 2912/3012 18012KT P6SM SCT200
     FM291500 19015G23KT P6SM BKN150
     FM292200 20012KT P6SM -SHRA SCT050 OVC080
     FM300500 23010KT P6SM VCSH SCT012 OVC025
     FM300800 27010KT P6SM SCT250=



000
FTUS41 KILN 291100
TAFLCK
TAF
KLCK 291126Z 2912/3012 17003KT P6SM SKC
     FM291400 18009KT P6SM SCT200
     FM291700 18014G22KT P6SM BKN150
     FM292300 19009KT P6SM -SHRA SCT050 OVC080
     FM300700 21010KT P6SM VCSH SCT015 OVC025
     FM301100 26010KT P6SM SCT025 SCT250=



000
FTUS41 KILN 290800 AAA
TAFCVG
TAF AMD
KCVG 290857Z 2909/3012 17006KT P6SM SKC
     FM291300 17010KT P6SM BKN200
     FM291600 18012G20KT P6SM BKN150
     FM292200 20010KT P6SM -SHRA SCT050 OVC080
     FM300400 23010KT P6SM VCSH OVC022
     FM301000 26010KT P6SM SCT250=



000
FTUS41 KILN 290500
TAFLCK
TAF
KLCK 290520Z 2906/3006 VRB03KT P6SM SKC
     FM291400 17009KT P6SM SCT200
     FM291700 18014G22KT P6SM BKN150
     FM292300 19009KT P6SM -SHRA SCT050 OVC080
     FM300500 21010KT P6SM VCSH OVC025=



000
FTUS41 KILN 290500
TAFILN
TAF
KILN 290520Z 2906/3006 VRB05KT P6SM SKC
     FM291300 18012KT P6SM BKN200
     FM291600 19014G22KT P6SM BKN150
     FM292300 19010KT P6SM -SHRA SCT050 OVC080
     FM300500 22010KT P6SM VCSH OVC022=



000
FTUS41 KILN 290500
TAFCMH
TAF
KCMH 290520Z 2906/3006 VRB03KT P6SM SKC
     FM291400 17010KT P6SM SCT200
     FM291700 18015G23KT P6SM BKN150
     FM292300 19010KT P6SM -SHRA SCT050 OVC080
     FM300500 21010KT P6SM VCSH OVC025=



000
FTUS41 KILN 290500
TAFLCK
TAF
KLCK 290520Z 2906/3006 VRB03KT P6SM SKC
     FM291400 17009KT P6SM SCT200
     FM291700 18014G22KT P6SM BKN150
     FM292300 19009KT P6SM -SHRA SCT050 OVC080
     FM300500 21010KT P6SM VCSH OVC025=



000
FTUS41 KILN 290500
TAFILN
TAF
KILN 290520Z 2906/3006 VRB05KT P6SM SKC
     FM291300 18012KT P6SM BKN200
     FM291600 19014G22KT P6SM BKN150
     FM292300 19010KT P6SM -SHRA SCT050 OVC080
     FM300500 22010KT P6SM VCSH OVC022=



000
FTUS41 KILN 290500
TAFCVG
TAF
KCVG 290520Z 2906/3012 VRB03KT P6SM SKC
     FM291300 17010KT P6SM BKN200
     FM291600 18012G20KT P6SM BKN150
     FM292200 20010KT P6SM -SHRA SCT050 OVC080
     FM300400 23010KT P6SM VCSH OVC022
     FM301000 26010KT P6SM SCT250=



000
FTUS41 KILN 290500
TAFDAY
TAF
KDAY 290520Z 2906/3006 VRB05KT P6SM SKC
     FM291300 18012KT P6SM BKN200
     FM291500 19015G23KT P6SM BKN150
     FM292200 20012KT P6SM -SHRA SCT050 OVC080
     FM300400 23010KT P6SM VCSH OVC025=



000
FTUS41 KILN 290500
TAFCMH
TAF
KCMH 290520Z 2906/3006 VRB03KT P6SM SKC
     FM291400 17010KT P6SM SCT200
     FM291700 18015G23KT P6SM BKN150
     FM292300 19010KT P6SM -SHRA SCT050 OVC080
     FM300500 21010KT P6SM VCSH OVC025=



000
FTUS41 KILN 290500
TAFDAY
TAF
KDAY 290520Z 2906/3006 VRB05KT P6SM SKC
     FM291300 18012KT P6SM BKN200
     FM291500 19015G23KT P6SM BKN150
     FM292200 20012KT P6SM -SHRA SCT050 OVC080
     FM300400 23010KT P6SM VCSH OVC025=



000
FTUS41 KILN 290500
TAFLUK
TAF
KLUK 290520Z 2906/3006 VRB02KT P6SM SKC
     FM291300 18008KT P6SM BKN200
     FM291600 19012G20KT P6SM BKN150
     FM292200 20009KT P6SM -SHRA SCT050 OVC080
     FM300400 23010KT P6SM VCSH OVC025=



000
FTUS41 KILN 290500
TAFLUK
TAF
KLUK 290520Z 2906/3006 VRB02KT P6SM SKC
     FM291300 18008KT P6SM BKN200
     FM291600 19012G20KT P6SM BKN150
     FM292200 20009KT P6SM -SHRA SCT050 OVC080
     FM300400 23010KT P6SM VCSH OVC025=



000
FTUS41 KILN 290500
TAFCVG
TAF
KCVG 290520Z 2906/3012 VRB03KT P6SM SKC
     FM291300 17010KT P6SM BKN200
     FM291600 18012G20KT P6SM BKN150
     FM292200 20010KT P6SM -SHRA SCT050 OVC080
     FM300400 23010KT P6SM VCSH OVC022
     FM301000 26010KT P6SM SCT250=



000
FTUS41 KILN 282300
TAFLCK
TAF
KLCK 282327Z 2900/2924 34006KT P6SM SKC
     FM290200 VRB03KT P6SM SKC
     FM291400 17009KT P6SM SCT200
     FM291900 18014G22KT P6SM BKN150
     FM292300 19009KT P6SM -SHRA SCT050 OVC080=



000
FTUS41 KILN 282300
TAFDAY
TAF
KDAY 282327Z 2900/2924 VRB04KT P6SM SKC
     FM290800 17007KT P6SM SKC
     FM291300 18012KT P6SM BKN200
     FM291700 19015G23KT P6SM BKN150
     FM292200 20012KT P6SM -SHRA SCT050 OVC080=



000
FTUS41 KILN 282300
TAFCMH
TAF
KCMH 282327Z 2900/2924 34007KT P6SM SKC
     FM290200 VRB03KT P6SM SKC
     FM291400 17010KT P6SM SCT200
     FM291900 18015G23KT P6SM BKN150
     FM292300 19010KT P6SM -SHRA SCT050 OVC080=



000
FTUS41 KILN 282300
TAFLUK
TAF
KLUK 282327Z 2900/2924 VRB02KT P6SM SKC
     FM291300 18008KT P6SM BKN200
     FM291800 19012G20KT P6SM BKN150
     FM292200 20009KT P6SM -SHRA SCT050 OVC080=



000
FTUS41 KILN 282300
TAFILN
TAF
KILN 282327Z 2900/2924 VRB03KT P6SM SKC
     FM291000 17005KT P6SM SKC
     FM291400 18012KT P6SM BKN200
     FM291700 19014G22KT P6SM BKN150
     FM292300 19010KT P6SM -SHRA SCT050 OVC080=



000
FTUS41 KILN 282300
TAFCVG
TAF
KCVG 282327Z 2900/3006 VRB03KT P6SM SKC
     FM291300 17010KT P6SM BKN200
     FM291800 18012G20KT P6SM BKN150
     FM292200 20010KT P6SM -SHRA SCT050 OVC080
     FM300300 23010KT P6SM VCSH OVC022=



000
FTUS41 KILN 282000 AAA
TAFCVG
TAF AMD
KCVG 282057Z 2821/2924 33006KT P6SM SKC
     FM290100 VRB03KT P6SM SKC
     FM291300 17012KT P6SM BKN200
     FM291700 18012G22KT P6SM BKN150
     FM292300 19010KT P6SM -RA OVC050=



000
FTUS41 KILN 281800 AAA
TAFLCK
TAF AMD
KLCK 281839Z 2819/2918 36012KT P6SM BKN040
     FM290000 VRB03KT P6SM SKC
     FM291500 18012KT P6SM SCT200=



000
FTUS41 KILN 281800 AAA
TAFLCK
TAF AMD
KLCK 281839Z 2819/2918 36012KT P6SM BKN040
     FM290000 VRB03KT P6SM SKC
     FM291500 18012KT P6SM SCT200=



000
FTUS41 KILN 281800 AAA
TAFCMH
TAF AMD
KCMH 281838Z 2819/2918 34012KT P6SM BKN040
     FM290000 VRB03KT P6SM SKC
     FM291500 17012KT P6SM SCT200=



000
FTUS41 KILN 281800 AAA
TAFCMH
TAF AMD
KCMH 281838Z 2819/2918 34012KT P6SM BKN040
     FM290000 VRB03KT P6SM SKC
     FM291500 17012KT P6SM SCT200=



000
FTUS41 KILN 281700
TAFLCK
TAF
KLCK 281720Z 2818/2918 34012KT P6SM BKN040
     FM290000 VRB03KT P6SM SKC
     FM291500 18012KT P6SM SCT200=



000
FTUS41 KILN 281700
TAFDAY
TAF
KDAY 281720Z 2818/2918 35009KT P6SM SCT040
     FM282300 VRB03KT P6SM SKC
     FM291300 18013KT P6SM BKN200
     FM291500 19014G24KT P6SM BKN200=



000
FTUS41 KILN 281700
TAFCVG
TAF
KCVG 281720Z 2818/2924 35008KT P6SM FEW040
     FM282300 VRB03KT P6SM SKC
     FM291300 17012KT P6SM BKN200
     FM291700 18012G22KT P6SM BKN150
     FM292300 19010KT P6SM -RA OVC050=



000
FTUS41 KILN 281700
TAFCMH
TAF
KCMH 281720Z 2818/2918 35012KT P6SM BKN040
     FM290000 VRB03KT P6SM SKC
     FM291500 17012KT P6SM SCT200=



000
FTUS41 KILN 281700
TAFILN
TAF
KILN 281720Z 2818/2918 35010KT P6SM SCT040
     FM282300 VRB03KT P6SM SKC
     FM291300 17010KT P6SM SCT200
     FM291600 19012G20KT P6SM BKN200=



000
FTUS41 KILN 281700
TAFLCK
TAF
KLCK 281720Z 2818/2918 34012KT P6SM BKN040
     FM290000 VRB03KT P6SM SKC
     FM291500 18012KT P6SM SCT200=



000
FTUS41 KILN 281700
TAFCVG
TAF
KCVG 281720Z 2818/2924 35008KT P6SM FEW040
     FM282300 VRB03KT P6SM SKC
     FM291300 17012KT P6SM BKN200
     FM291700 18012G22KT P6SM BKN150
     FM292300 19010KT P6SM -RA OVC050=



000
FTUS41 KILN 281700
TAFLUK
TAF
KLUK 281720Z 2818/2918 36008KT P6SM FEW040
     FM282300 00000KT P6SM SKC
     FM291300 17010KT P6SM BKN200
     FM291700 18012G22KT P6SM BKN150=



000
FTUS41 KILN 281700
TAFDAY
TAF
KDAY 281720Z 2818/2918 35009KT P6SM SCT040
     FM282300 VRB03KT P6SM SKC
     FM291300 18013KT P6SM BKN200
     FM291500 19014G24KT P6SM BKN200=



000
FTUS41 KILN 281700
TAFLUK
TAF
KLUK 281720Z 2818/2918 36008KT P6SM FEW040
     FM282300 00000KT P6SM SKC
     FM291300 17010KT P6SM BKN200
     FM291700 18012G22KT P6SM BKN150=



000
FTUS41 KILN 281700
TAFILN
TAF
KILN 281720Z 2818/2918 35010KT P6SM SCT040
     FM282300 VRB03KT P6SM SKC
     FM291300 17010KT P6SM SCT200
     FM291600 19012G20KT P6SM BKN200=



000
FTUS41 KILN 281700
TAFCMH
TAF
KCMH 281720Z 2818/2918 35012KT P6SM BKN040
     FM290000 VRB03KT P6SM SKC
     FM291500 17012KT P6SM SCT200=



000
FTUS41 KILN 281400 AAA
TAFCVG
TAF AMD
KCVG 281458Z 2815/2918 01009KT P6SM SCT025
     FM290000 VRB03KT P6SM SKC
     FM291300 17012KT P6SM SCT250
     FM291600 18012G22KT P6SM BKN200=



000
FTUS41 KILN 281400 AAA
TAFCVG
TAF AMD
KCVG 281458Z 2815/2918 01009KT P6SM SCT025
     FM290000 VRB03KT P6SM SKC
     FM291300 17012KT P6SM SCT250
     FM291600 18012G22KT P6SM BKN200=



000
FTUS41 KILN 281300 AAA
TAFLCK
TAF AMD
KLCK 281323Z 2813/2912 36010KT P6SM FEW040
     FM281600 33011KT P6SM SCT040
     FM290000 VRB02KT P6SM SKC=



000
FTUS41 KILN 281300 AAA
TAFCMH
TAF AMD
KCMH 281322Z 2813/2912 01010KT P6SM FEW040
     FM281500 34012KT P6SM SCT040
     FM290000 VRB03KT P6SM SKC=



000
FTUS41 KILN 281300 AAA
TAFCMH
TAF AMD
KCMH 281322Z 2813/2912 01010KT P6SM FEW040
     FM281500 34012KT P6SM SCT040
     FM290000 VRB03KT P6SM SKC=



000
FTUS41 KILN 281300 AAA
TAFDAY
TAF AMD
KDAY 281319Z 2813/2912 01010KT P6SM FEW015
     FM281800 34011KT P6SM FEW040
     FM290000 VRB03KT P6SM SKC=



000
FTUS41 KILN 281300 AAA
TAFDAY
TAF AMD
KDAY 281319Z 2813/2912 01010KT P6SM FEW015
     FM281800 34011KT P6SM FEW040
     FM290000 VRB03KT P6SM SKC=



000
FTUS41 KILN 281200 AAA
TAFILN
TAF AMD
KILN 281259Z 2813/2912 03010KT P6SM BKN022
      TEMPO 2813/2814 -SHSN
     FM281400 01010KT P6SM SCT040
     FM281800 34010KT P6SM FEW040
     FM290000 VRB03KT P6SM SKC=



000
FTUS41 KILN 281200 AAA
TAFILN
TAF AMD
KILN 281259Z 2813/2912 03010KT P6SM BKN022
      TEMPO 2813/2814 -SHSN
     FM281400 01010KT P6SM SCT040
     FM281800 34010KT P6SM FEW040
     FM290000 VRB03KT P6SM SKC=



000
FTUS41 KILN 281100
TAFCVG
TAF
KCVG 281122Z 2812/2918 35008KT P6SM FEW040
     FM290000 VRB03KT P6SM SKC
     FM291300 17012KT P6SM SCT250
     FM291600 18012G22KT P6SM BKN200=



000
FTUS41 KILN 281100
TAFDAY
TAF
KDAY 281122Z 2812/2912 35009KT P6SM FEW035
     FM290000 VRB03KT P6SM SKC=



000
FTUS41 KILN 281100
TAFILN
TAF
KILN 281122Z 2812/2912 35010KT P6SM FEW030
     FM290000 VRB03KT P6SM SKC=



000
FTUS41 KILN 281100
TAFCMH
TAF
KCMH 281122Z 2812/2912 35010KT P6SM FEW030
     FM290000 VRB03KT P6SM SKC=



000
FTUS41 KILN 281100
TAFDAY
TAF
KDAY 281122Z 2812/2912 35009KT P6SM FEW035
     FM290000 VRB03KT P6SM SKC=



000
FTUS41 KILN 281100
TAFCVG
TAF
KCVG 281122Z 2812/2918 35008KT P6SM FEW040
     FM290000 VRB03KT P6SM SKC
     FM291300 17012KT P6SM SCT250
     FM291600 18012G22KT P6SM BKN200=



000
FTUS41 KILN 281100
TAFILN
TAF
KILN 281122Z 2812/2912 35010KT P6SM FEW030
     FM290000 VRB03KT P6SM SKC=



000
FTUS41 KILN 281100
TAFCMH
TAF
KCMH 281122Z 2812/2912 35010KT P6SM FEW030
     FM290000 VRB03KT P6SM SKC=



000
FTUS41 KILN 281100
TAFLCK
TAF
KLCK 281122Z 2812/2912 35010KT P6SM FEW030
     FM290000 VRB02KT P6SM SKC=



000
FTUS41 KILN 281100
TAFLUK
TAF
KLUK 281122Z 2812/2912 35006KT P6SM FEW045
     FM290000 VRB01KT P6SM SKC=



000
FTUS41 KILN 281100
TAFLUK
TAF
KLUK 281122Z 2812/2912 35006KT P6SM FEW045
     FM290000 VRB01KT P6SM SKC=



000
FTUS41 KILN 281100
TAFLCK
TAF
KLCK 281122Z 2812/2912 35010KT P6SM FEW030
     FM290000 VRB02KT P6SM SKC=



000
FTUS41 KILN 280900 AAA
TAFCVG
TAF AMD
KCVG 280900Z 2809/2912 35007KT P6SM FEW040
     FM290000 VRB03KT P6SM SKC=



000
FTUS41 KILN 280800 AAA
TAFCMH
TAF AMD
KCMH 280808Z 2808/2906 35010KT P6SM BKN050
      TEMPO 2808/2810 BKN020
     FM281000 35010KT P6SM FEW030
     FM290000 VRB03KT P6SM SKC=



000
FTUS41 KILN 280800 AAA
TAFLCK
TAF AMD
KLCK 280808Z 2808/2906 35010KT P6SM BKN035
      TEMPO 2808/2810 BKN020
     FM281000 35009KT P6SM FEW030
     FM290000 VRB02KT P6SM SKC=



000
FTUS41 KILN 280800 AAA
TAFCMH
TAF AMD
KCMH 280808Z 2808/2906 35010KT P6SM BKN050
      TEMPO 2808/2810 BKN020
     FM281000 35010KT P6SM FEW030
     FM290000 VRB03KT P6SM SKC=



000
FTUS41 KILN 280800 AAA
TAFLCK
TAF AMD
KLCK 280808Z 2808/2906 35010KT P6SM BKN035
      TEMPO 2808/2810 BKN020
     FM281000 35009KT P6SM FEW030
     FM290000 VRB02KT P6SM SKC=



000
FTUS41 KILN 280500
TAFDAY
TAF
KDAY 280520Z 2806/2906 36010KT P6SM BKN050
     FM280800 35009KT P6SM FEW030
     FM290000 VRB03KT P6SM SKC=



000
FTUS41 KILN 280500
TAFILN
TAF
KILN 280520Z 2806/2906 36010KT P6SM BKN050
     FM281000 35009KT P6SM FEW030
     FM290000 VRB03KT P6SM SKC=



000
FTUS41 KILN 280500
TAFLCK
TAF
KLCK 280520Z 2806/2906 35010KT P6SM BKN035
     FM281000 35009KT P6SM FEW030
     FM290000 VRB02KT P6SM SKC=



000
FTUS41 KILN 280500
TAFCMH
TAF
KCMH 280520Z 2806/2906 35010KT P6SM BKN050
     FM281000 35010KT P6SM FEW030
     FM290000 VRB03KT P6SM SKC=



000
FTUS41 KILN 280500
TAFCVG
TAF
KCVG 280520Z 2806/2912 33010KT P6SM OVC050
     FM281100 35007KT P6SM FEW040
     FM290000 VRB03KT P6SM SKC=



000
FTUS41 KILN 280500
TAFILN
TAF
KILN 280520Z 2806/2906 36010KT P6SM BKN050
     FM281000 35009KT P6SM FEW030
     FM290000 VRB03KT P6SM SKC=



000
FTUS41 KILN 280500
TAFLUK
TAF
KLUK 280520Z 2806/2906 33008KT P6SM OVC060
     FM281100 34006KT P6SM FEW045
     FM290000 VRB01KT P6SM SKC=



000
FTUS41 KILN 280500
TAFCVG
TAF
KCVG 280520Z 2806/2912 33010KT P6SM OVC050
     FM281100 35007KT P6SM FEW040
     FM290000 VRB03KT P6SM SKC=



000
FTUS41 KILN 280500
TAFLUK
TAF
KLUK 280520Z 2806/2906 33008KT P6SM OVC060
     FM281100 34006KT P6SM FEW045
     FM290000 VRB01KT P6SM SKC=



000
FTUS41 KILN 280500
TAFLCK
TAF
KLCK 280520Z 2806/2906 35010KT P6SM BKN035
     FM281000 35009KT P6SM FEW030
     FM290000 VRB02KT P6SM SKC=



000
FTUS41 KILN 280500
TAFCMH
TAF
KCMH 280520Z 2806/2906 35010KT P6SM BKN050
     FM281000 35010KT P6SM FEW030
     FM290000 VRB03KT P6SM SKC=



000
FTUS41 KILN 280500
TAFDAY
TAF
KDAY 280520Z 2806/2906 36010KT P6SM BKN050
     FM280800 35009KT P6SM FEW030
     FM290000 VRB03KT P6SM SKC=



000
FTUS41 KILN 272300
TAFCVG
TAF
KCVG 272330Z 2800/2906 33010KT P6SM OVC050
     FM281100 35007KT P6SM FEW040
     FM290000 VRB03KT P6SM SKC=



000
FTUS41 KILN 272300
TAFLUK
TAF
KLUK 272330Z 2800/2824 33008KT P6SM OVC050
     FM281100 34006KT P6SM FEW045=



000
FTUS41 KILN 272300
TAFCMH
TAF
KCMH 272330Z 2800/2824 32011KT P6SM OVC050
     FM280400 32009KT P6SM BKN035
     FM280800 34010KT P6SM SCT022
     FM281800 33012KT P6SM FEW040=



000
FTUS41 KILN 272300
TAFDAY
TAF
KDAY 272330Z 2800/2824 33010KT P6SM BKN050
     FM280800 36007KT P6SM SCT022
     FM281500 34010KT P6SM SKC=



000
FTUS41 KILN 272300
TAFILN
TAF
KILN 272330Z 2800/2824 33010KT P6SM BKN050
     FM281000 36007KT P6SM SCT022
     FM281500 34009KT P6SM SKC=



000
FTUS41 KILN 272300
TAFLCK
TAF
KLCK 272330Z 2800/2824 33010KT P6SM OVC050
     FM280400 34007KT P6SM BKN035
     FM280800 34009KT P6SM SCT022
     FM281800 33011KT P6SM FEW040=



000
FTUS41 KILN 272300
TAFLCK
TAF
KLCK 272330Z 2800/2824 33010KT P6SM OVC050
     FM280400 34007KT P6SM BKN035
     FM280800 34009KT P6SM SCT022
     FM281800 33011KT P6SM FEW040=



000
FTUS41 KILN 272300
TAFILN
TAF
KILN 272330Z 2800/2824 33010KT P6SM BKN050
     FM281000 36007KT P6SM SCT022
     FM281500 34009KT P6SM SKC=



000
FTUS41 KILN 272300
TAFCVG
TAF
KCVG 272330Z 2800/2906 33010KT P6SM OVC050
     FM281100 35007KT P6SM FEW040
     FM290000 VRB03KT P6SM SKC=



000
FTUS41 KILN 272300
TAFLUK
TAF
KLUK 272330Z 2800/2824 33008KT P6SM OVC050
     FM281100 34006KT P6SM FEW045=



000
FTUS41 KILN 272300
TAFCMH
TAF
KCMH 272330Z 2800/2824 32011KT P6SM OVC050
     FM280400 32009KT P6SM BKN035
     FM280800 34010KT P6SM SCT022
     FM281800 33012KT P6SM FEW040=



000
FTUS41 KILN 272300
TAFDAY
TAF
KDAY 272330Z 2800/2824 33010KT P6SM BKN050
     FM280800 36007KT P6SM SCT022
     FM281500 34010KT P6SM SKC=



000
FTUS41 KILN 272000 AAB
TAFCVG
TAF AMD
KCVG 272059Z 2721/2824 33014KT P6SM OVC050
     FM280100 33010KT P6SM BKN050
     FM280600 34008KT P6SM FEW050
     FM281300 36009KT P6SM SCT030=



000
FTUS41 KILN 271800 AAA
TAFCVG
TAF AMD
KCVG 271854Z 2719/2824 34012KT P6SM OVC040
      TEMPO 2719/2721 P6SM -SN OVC030
     FM280400 34009KT P6SM FEW040
     FM281300 36009KT P6SM SCT030=



000
FTUS41 KILN 271800 AAA
TAFCVG
TAF AMD
KCVG 271854Z 2719/2824 34012KT P6SM OVC040
      TEMPO 2719/2721 P6SM -SN OVC030
     FM280400 34009KT P6SM FEW040
     FM281300 36009KT P6SM SCT030=



000
FTUS41 KILN 271700
TAFILN
TAF
KILN 271733Z 2718/2818 33010KT P6SM OVC035
      TEMPO 2718/2719 5SM -SN BKN015
     FM280600 35008KT P6SM FEW040
     FM281300 36010KT P6SM SCT035=



000
FTUS41 KILN 271700
TAFCVG
TAF
KCVG 271733Z 2718/2824 34012KT P6SM OVC040
     FM280400 34009KT P6SM FEW040
     FM281300 36009KT P6SM SCT030=



000
FTUS41 KILN 271700
TAFLCK
TAF
KLCK 271733Z 2718/2818 32011KT P6SM OVC040
     FM280500 32008KT P6SM FEW040
     FM281300 36009KT P6SM SCT035=



000
FTUS41 KILN 271700
TAFCMH
TAF
KCMH 271733Z 2718/2818 32010KT P6SM OVC040
     FM280500 32008KT P6SM FEW040
     FM281300 36009KT P6SM SCT035=



000
FTUS41 KILN 271700
TAFLUK
TAF
KLUK 271733Z 2718/2818 34012KT P6SM OVC040
     FM280400 34007KT P6SM FEW040
     FM281300 36008KT P6SM SCT030=



000
FTUS41 KILN 271700
TAFDAY
TAF
KDAY 271733Z 2718/2818 34012KT P6SM OVC035
      TEMPO 2718/2719 BKN030
     FM280400 35009KT P6SM FEW040
     FM281300 36009KT P6SM SCT035=



000
FTUS41 KILN 271700
TAFDAY
TAF
KDAY 271733Z 2718/2818 34012KT P6SM OVC035
      TEMPO 2718/2719 BKN030
     FM280400 35009KT P6SM FEW040
     FM281300 36009KT P6SM SCT035=



000
FTUS41 KILN 271700
TAFILN
TAF
KILN 271733Z 2718/2818 33010KT P6SM OVC035
      TEMPO 2718/2719 5SM -SN BKN015
     FM280600 35008KT P6SM FEW040
     FM281300 36010KT P6SM SCT035=



000
FTUS41 KILN 271700
TAFLUK
TAF
KLUK 271733Z 2718/2818 34012KT P6SM OVC040
     FM280400 34007KT P6SM FEW040
     FM281300 36008KT P6SM SCT030=



000
FTUS41 KILN 271700
TAFCVG
TAF
KCVG 271733Z 2718/2824 34012KT P6SM OVC040
     FM280400 34009KT P6SM FEW040
     FM281300 36009KT P6SM SCT030=



000
FTUS41 KILN 271700
TAFCMH
TAF
KCMH 271733Z 2718/2818 32010KT P6SM OVC040
     FM280500 32008KT P6SM FEW040
     FM281300 36009KT P6SM SCT035=



000
FTUS41 KILN 271700
TAFLCK
TAF
KLCK 271733Z 2718/2818 32011KT P6SM OVC040
     FM280500 32008KT P6SM FEW040
     FM281300 36009KT P6SM SCT035=



000
FTUS41 KILN 271600 AAB
TAFCVG
TAF AMD
KCVG 271609Z 2716/2818 36011KT P6SM BKN035
      TEMPO 2716/2719 BKN025
     FM272000 32014G22KT P6SM BKN040
     FM280000 33009KT P6SM FEW040
     FM281200 36009KT P6SM SCT030=



000
FTUS41 KILN 271600 AAB
TAFCMH
TAF AMD
KCMH 271608Z 2716/2812 32011KT P6SM BKN035
     FM271900 32012G20KT P6SM BKN035
     FM280000 32008KT P6SM FEW040
     FM281100 36009KT P6SM SCT035=



000
FTUS41 KILN 271600 AAA
TAFILN
TAF AMD
KILN 271606Z 2716/2812 33011KT P6SM BKN035
      TEMPO 2716/2719 BKN025
     FM271900 32012G22KT P6SM BKN040
     FM280100 32008KT P6SM FEW040
     FM281100 36009KT P6SM SCT035=



000
FTUS41 KILN 271600 AAA
TAFILN
TAF AMD
KILN 271606Z 2716/2812 33011KT P6SM BKN035
      TEMPO 2716/2719 BKN025
     FM271900 32012G22KT P6SM BKN040
     FM280100 32008KT P6SM FEW040
     FM281100 36009KT P6SM SCT035=



000
FTUS41 KILN 271500 AAB
TAFDAY
TAF AMD
KDAY 271523Z 2715/2812 33014KT P6SM BKN025 OVC035
     FM271900 32014G22KT P6SM BKN035
     FM280100 32009KT P6SM FEW040
     FM281100 36009KT P6SM SCT035=



000
FTUS41 KILN 271400 AAA
TAFCMH
TAF AMD
KCMH 271458Z 2715/2812 01008KT P6SM BKN025 OVC040
     FM271900 32012G20KT P6SM BKN040
     FM280000 32008KT P6SM FEW040
     FM281100 36009KT P6SM SCT035=



000
FTUS41 KILN 271400 AAA
TAFCVG
TAF AMD
KCVG 271457Z 2715/2818 36011KT P6SM BKN035
      TEMPO 2715/2717 BKN015
     FM272000 32014G22KT P6SM BKN040
     FM280000 33009KT P6SM FEW040
     FM281200 36009KT P6SM SCT030=



000
FTUS41 KILN 271300 AAA
TAFDAY
TAF AMD
KDAY 271351Z 2714/2812 33014KT P6SM BKN015
     FM271700 32014G22KT P6SM SCT015
     FM271900 32014G22KT P6SM BKN045
     FM280100 32009KT P6SM FEW040
     FM281100 36009KT P6SM SCT035=



000
FTUS41 KILN 271300 AAA
TAFDAY
TAF AMD
KDAY 271351Z 2714/2812 33014KT P6SM BKN015
     FM271700 32014G22KT P6SM SCT015
     FM271900 32014G22KT P6SM BKN045
     FM280100 32009KT P6SM FEW040
     FM281100 36009KT P6SM SCT035=



000
FTUS41 KILN 271100
TAFCMH
TAF
KCMH 271134Z 2712/2812 33006KT P6SM SCT035
     FM271400 33011KT P6SM BKN035
     FM271900 32012G20KT P6SM BKN040
     FM280000 32008KT P6SM FEW040
     FM281100 36009KT P6SM SCT035=



000
FTUS41 KILN 271100
TAFLUK
TAF
KLUK 271134Z 2712/2812 VRB04KT P6SM SCT040
     FM271400 35010KT P6SM BKN040
     FM272000 32012G20KT P6SM BKN045
     FM280000 32008KT P6SM FEW045
     FM281100 35007KT P6SM SCT035=



000
FTUS41 KILN 271100
TAFCVG
TAF
KCVG 271134Z 2712/2818 34006KT P6SM SCT035
     FM271400 34011KT P6SM BKN035
     FM272000 32014G22KT P6SM BKN040
     FM280000 33009KT P6SM FEW040
     FM281200 36009KT P6SM SCT030=



000
FTUS41 KILN 271100
TAFILN
TAF
KILN 271134Z 2712/2812 34008KT P6SM SCT035
     FM271400 33011KT P6SM BKN035
     FM271900 32012G22KT P6SM BKN040
     FM280100 32008KT P6SM FEW040
     FM281100 36009KT P6SM SCT035=



000
FTUS41 KILN 271100
TAFLCK
TAF
KLCK 271134Z 2712/2812 33008KT P6SM SCT035
     FM271400 33011KT P6SM BKN035
     FM271900 31012G20KT P6SM BKN040
     FM280000 32008KT P6SM FEW040
     FM281100 36009KT P6SM SCT035=



000
FTUS41 KILN 271100
TAFDAY
TAF
KDAY 271134Z 2712/2812 33008KT P6SM SCT035
     FM271400 33012KT P6SM BKN035
     FM271900 32014G22KT P6SM BKN045
     FM280100 32009KT P6SM FEW040
     FM281100 36009KT P6SM SCT035=



000
FTUS41 KILN 271100
TAFCVG
TAF
KCVG 271134Z 2712/2818 34006KT P6SM SCT035
     FM271400 34011KT P6SM BKN035
     FM272000 32014G22KT P6SM BKN040
     FM280000 33009KT P6SM FEW040
     FM281200 36009KT P6SM SCT030=



000
FTUS41 KILN 271100
TAFLCK
TAF
KLCK 271134Z 2712/2812 33008KT P6SM SCT035
     FM271400 33011KT P6SM BKN035
     FM271900 31012G20KT P6SM BKN040
     FM280000 32008KT P6SM FEW040
     FM281100 36009KT P6SM SCT035=



000
FTUS41 KILN 271100
TAFLUK
TAF
KLUK 271134Z 2712/2812 VRB04KT P6SM SCT040
     FM271400 35010KT P6SM BKN040
     FM272000 32012G20KT P6SM BKN045
     FM280000 32008KT P6SM FEW045
     FM281100 35007KT P6SM SCT035=



000
FTUS41 KILN 271100
TAFCMH
TAF
KCMH 271134Z 2712/2812 33006KT P6SM SCT035
     FM271400 33011KT P6SM BKN035
     FM271900 32012G20KT P6SM BKN040
     FM280000 32008KT P6SM FEW040
     FM281100 36009KT P6SM SCT035=



000
FTUS41 KILN 271100
TAFILN
TAF
KILN 271134Z 2712/2812 34008KT P6SM SCT035
     FM271400 33011KT P6SM BKN035
     FM271900 32012G22KT P6SM BKN040
     FM280100 32008KT P6SM FEW040
     FM281100 36009KT P6SM SCT035=



000
FTUS41 KILN 271100
TAFDAY
TAF
KDAY 271134Z 2712/2812 33008KT P6SM SCT035
     FM271400 33012KT P6SM BKN035
     FM271900 32014G22KT P6SM BKN045
     FM280100 32009KT P6SM FEW040
     FM281100 36009KT P6SM SCT035=



000
FTUS41 KILN 270800 AAA
TAFCVG
TAF AMD
KCVG 270857Z 2709/2812 34006KT P6SM BKN035
     FM271400 34011KT P6SM BKN035
     FM272000 32014G22KT P6SM SCT040
     FM280000 32008KT P6SM FEW040=



000
FTUS41 KILN 270800 AAA
TAFCVG
TAF AMD
KCVG 270857Z 2709/2812 34006KT P6SM BKN035
     FM271400 34011KT P6SM BKN035
     FM272000 32014G22KT P6SM SCT040
     FM280000 32008KT P6SM FEW040=



000
FTUS41 KILN 270500
TAFILN
TAF
KILN 270522Z 2706/2806 34009KT P6SM BKN040
     FM271400 33011KT P6SM BKN035
     FM271900 32012G22KT P6SM BKN040
     FM280000 32008KT P6SM FEW040=



000
FTUS41 KILN 270500
TAFLCK
TAF
KLCK 270522Z 2706/2806 33008KT P6SM BKN040
     FM271400 33011KT P6SM BKN035
     FM271900 31012G20KT P6SM BKN040
     FM280000 32008KT P6SM FEW040=



000
FTUS41 KILN 270500
TAFCVG
TAF
KCVG 270522Z 2706/2812 34006KT P6SM BKN035
     FM271400 34011KT P6SM BKN035
     FM272000 32014G22KT P6SM SCT040
     FM280000 32008KT P6SM FEW040=



000
FTUS41 KILN 270500
TAFDAY
TAF
KDAY 270522Z 2706/2806 34008KT P6SM BKN035
     FM271400 33012KT P6SM BKN035
     FM271900 32014G22KT P6SM BKN040
     FM280000 32008KT P6SM FEW040=



000
FTUS41 KILN 270500
TAFCMH
TAF
KCMH 270522Z 2706/2806 33008KT P6SM BKN040
     FM271400 33011KT P6SM BKN035
     FM271900 32012G20KT P6SM BKN040
     FM280000 32008KT P6SM FEW040=



000
FTUS41 KILN 270500
TAFLUK
TAF
KLUK 270522Z 2706/2806 VRB05KT P6SM BKN040
     FM271400 35010KT P6SM BKN040
     FM272000 32012G20KT P6SM SCT045
     FM280000 32008KT P6SM FEW040=



000
FTUS41 KILN 270500
TAFCVG
TAF
KCVG 270522Z 2706/2812 34006KT P6SM BKN035
     FM271400 34011KT P6SM BKN035
     FM272000 32014G22KT P6SM SCT040
     FM280000 32008KT P6SM FEW040=



000
FTUS41 KILN 270500
TAFILN
TAF
KILN 270522Z 2706/2806 34009KT P6SM BKN040
     FM271400 33011KT P6SM BKN035
     FM271900 32012G22KT P6SM BKN040
     FM280000 32008KT P6SM FEW040=



000
FTUS41 KILN 270500
TAFLCK
TAF
KLCK 270522Z 2706/2806 33008KT P6SM BKN040
     FM271400 33011KT P6SM BKN035
     FM271900 31012G20KT P6SM BKN040
     FM280000 32008KT P6SM FEW040=



000
FTUS41 KILN 270500
TAFDAY
TAF
KDAY 270522Z 2706/2806 34008KT P6SM BKN035
     FM271400 33012KT P6SM BKN035
     FM271900 32014G22KT P6SM BKN040
     FM280000 32008KT P6SM FEW040=



000
FTUS41 KILN 270500
TAFCMH
TAF
KCMH 270522Z 2706/2806 33008KT P6SM BKN040
     FM271400 33011KT P6SM BKN035
     FM271900 32012G20KT P6SM BKN040
     FM280000 32008KT P6SM FEW040=



000
FTUS41 KILN 270500
TAFLUK
TAF
KLUK 270522Z 2706/2806 VRB05KT P6SM BKN040
     FM271400 35010KT P6SM BKN040
     FM272000 32012G20KT P6SM SCT045
     FM280000 32008KT P6SM FEW040=



000
FTUS41 KILN 262300
TAFLUK
TAF
KLUK 262335Z 2700/2724 33005KT P6SM SCT028 BKN120
      TEMPO 2700/2702 BKN028
     FM270300 34005KT P6SM BKN040
     FM270800 35005KT P6SM FEW040
     FM271400 35009KT P6SM BKN040
     FM272000 32012G20KT P6SM SCT045=



000
FTUS41 KILN 262300
TAFILN
TAF
KILN 262335Z 2700/2724 32008KT P6SM BKN025
     FM270300 33006KT P6SM BKN035
     FM270600 34007KT P6SM FEW035
     FM271300 34010KT P6SM BKN028
     FM271500 33011KT P6SM BKN035
     FM271900 31012G20KT P6SM BKN040=



000
FTUS41 KILN 262300
TAFDAY
TAF
KDAY 262335Z 2700/2724 31008KT P6SM BKN035
     FM270600 32007KT P6SM FEW030
     FM271000 34008KT P6SM BKN025
     FM271500 33012KT P6SM BKN035
     FM271900 32014G22KT P6SM BKN040=



000
FTUS41 KILN 262300
TAFCVG
TAF
KCVG 262335Z 2700/2806 32007KT P6SM SCT025 BKN120
      TEMPO 2700/2702 BKN025
     FM270300 34006KT P6SM BKN035
     FM270800 34007KT P6SM FEW035
     FM271400 34011KT P6SM BKN035
     FM272000 32014G22KT P6SM SCT040
     FM280000 32011KT P6SM FEW040=



000
FTUS41 KILN 262300
TAFLCK
TAF
KLCK 262335Z 2700/2724 31008KT P6SM BKN028
     FM270200 31005KT P6SM BKN035
     FM270600 33006KT P6SM SCT030
     FM271000 34007KT P6SM BKN025
     FM271400 33009KT P6SM BKN035
     FM271900 31012G20KT P6SM BKN040=



000
FTUS41 KILN 262300
TAFDAY
TAF
KDAY 262335Z 2700/2724 31008KT P6SM BKN035
     FM270600 32007KT P6SM FEW030
     FM271000 34008KT P6SM BKN025
     FM271500 33012KT P6SM BKN035
     FM271900 32014G22KT P6SM BKN040=



000
FTUS41 KILN 262300
TAFCVG
TAF
KCVG 262335Z 2700/2806 32007KT P6SM SCT025 BKN120
      TEMPO 2700/2702 BKN025
     FM270300 34006KT P6SM BKN035
     FM270800 34007KT P6SM FEW035
     FM271400 34011KT P6SM BKN035
     FM272000 32014G22KT P6SM SCT040
     FM280000 32011KT P6SM FEW040=



000
FTUS41 KILN 262300
TAFILN
TAF
KILN 262335Z 2700/2724 32008KT P6SM BKN025
     FM270300 33006KT P6SM BKN035
     FM270600 34007KT P6SM FEW035
     FM271300 34010KT P6SM BKN028
     FM271500 33011KT P6SM BKN035
     FM271900 31012G20KT P6SM BKN040=



000
FTUS41 KILN 262300
TAFLUK
TAF
KLUK 262335Z 2700/2724 33005KT P6SM SCT028 BKN120
      TEMPO 2700/2702 BKN028
     FM270300 34005KT P6SM BKN040
     FM270800 35005KT P6SM FEW040
     FM271400 35009KT P6SM BKN040
     FM272000 32012G20KT P6SM SCT045=



000
FTUS41 KILN 262300
TAFCMH
TAF
KCMH 262335Z 2700/2724 31008KT P6SM BKN028
     FM270200 31006KT P6SM BKN035
     FM270600 33007KT P6SM SCT030
     FM271000 34008KT P6SM BKN025
     FM271400 33011KT P6SM BKN035
     FM271900 32012G20KT P6SM BKN040=



000
FTUS41 KILN 262300
TAFCMH
TAF
KCMH 262335Z 2700/2724 31008KT P6SM BKN028
     FM270200 31006KT P6SM BKN035
     FM270600 33007KT P6SM SCT030
     FM271000 34008KT P6SM BKN025
     FM271400 33011KT P6SM BKN035
     FM271900 32012G20KT P6SM BKN040=



000
FTUS41 KILN 262300
TAFLCK
TAF
KLCK 262335Z 2700/2724 31008KT P6SM BKN028
     FM270200 31005KT P6SM BKN035
     FM270600 33006KT P6SM SCT030
     FM271000 34007KT P6SM BKN025
     FM271400 33009KT P6SM BKN035
     FM271900 31012G20KT P6SM BKN040=



000
FTUS41 KILN 262200 AAA
TAFILN
TAF AMD
KILN 262238Z 2623/2718 32010KT P6SM OVC022
     FM270200 32006KT P6SM BKN035
     FM270500 33006KT P6SM SCT035
     FM271300 34010KT P6SM VCSH BKN025
     FM271600 34012G22KT P6SM VCSH BKN035=



000
FTUS41 KILN 262200 AAA
TAFLCK
TAF AMD
KLCK 262223Z 2622/2718 32010KT P6SM OVC015
     FM262300 32010KT P6SM OVC022
     FM270200 31006KT P6SM BKN035
     FM270500 33006KT P6SM SCT035
     FM271100 33008KT P6SM BKN025
     FM271300 34010KT P6SM VCSH BKN035
     FM271700 34012G22KT P6SM VCSH BKN035=



000
FTUS41 KILN 262200 AAB
TAFCMH
TAF AMD
KCMH 262216Z 2622/2718 32010KT P6SM OVC022
     FM270200 32007KT P6SM BKN035
     FM270500 33007KT P6SM SCT035
     FM271100 33009KT P6SM BKN025
     FM271300 34010KT P6SM VCSH BKN035
     FM271700 34012G22KT P6SM VCSH BKN035=



000
FTUS41 KILN 262200 AAA
TAFDAY
TAF AMD
KDAY 262213Z 2622/2718 32011KT P6SM BKN025
     FM270000 31008KT P6SM SCT035
     FM271000 34008KT P6SM BKN025
     FM271300 34010KT P6SM VCSH BKN025
     FM271600 34012G22KT P6SM VCSH BKN035=



000
FTUS41 KILN 262100 AAB
TAFLUK
TAF AMD
KLUK 262103Z 2621/2718 31010KT P6SM BKN018 OVC025
     FM262300 32008KT P6SM OVC025
     FM270300 34004KT P6SM SCT035 BKN150
     FM271200 34007KT P6SM VCSH BKN025
     FM271700 34010G20KT P6SM VCSH BKN035=



000
FTUS41 KILN 262100 AAA
TAFCVG
TAF AMD
KCVG 262101Z 2621/2724 32011KT P6SM BKN015 OVC022
     FM262300 32009KT P6SM OVC025
     FM270300 34007KT P6SM SCT035 BKN150
     FM271200 34010KT P6SM VCSH BKN025
     FM271700 34012G22KT P6SM VCSH BKN035=



000
FTUS41 KILN 261800 AAA
TAFCMH
TAF AMD
KCMH 261823Z 2618/2718 33006KT P6SM VCSH SCT009 OVC015
     FM262100 32011KT P6SM OVC015
     FM270200 33007KT P6SM OVC025
     FM270500 34007KT P6SM SCT035 BKN150
     FM271300 34010KT P6SM VCSH BKN035
     FM271700 34012G22KT P6SM VCSH BKN035=



000
FTUS41 KILN 261800 AAA
TAFCMH
TAF AMD
KCMH 261823Z 2618/2718 33006KT P6SM VCSH SCT009 OVC015
     FM262100 32011KT P6SM OVC015
     FM270200 33007KT P6SM OVC025
     FM270500 34007KT P6SM SCT035 BKN150
     FM271300 34010KT P6SM VCSH BKN035
     FM271700 34012G22KT P6SM VCSH BKN035=



000
FTUS41 KILN 261800 AAA
TAFLUK
TAF AMD
KLUK 261822Z 2618/2718 01008KT P6SM -RA VCSH BKN020 OVC025
     FM262300 33004KT P6SM OVC025
     FM270300 34004KT P6SM SCT035 BKN150
     FM271200 34007KT P6SM VCSH BKN025
     FM271700 34010G20KT P6SM VCSH BKN035=



000
FTUS41 KILN 261800 AAA
TAFLUK
TAF AMD
KLUK 261822Z 2618/2718 01008KT P6SM -RA VCSH BKN020 OVC025
     FM262300 33004KT P6SM OVC025
     FM270300 34004KT P6SM SCT035 BKN150
     FM271200 34007KT P6SM VCSH BKN025
     FM271700 34010G20KT P6SM VCSH BKN035=



000
FTUS41 KILN 261700
TAFLCK
TAF
KLCK 261738Z 2618/2718 33010KT P6SM VCSH OVC015
     FM262100 32011KT P6SM OVC015
     FM270200 33007KT P6SM OVC025
     FM270500 34007KT P6SM SCT035 BKN150
     FM271300 34010KT P6SM VCSH BKN035
     FM271700 34012G22KT P6SM VCSH BKN035=



000
FTUS41 KILN 261700
TAFILN
TAF
KILN 261738Z 2618/2718 35011KT 6SM -RA BR FEW007 OVC015
     FM262100 32011KT P6SM OVC015
     FM270100 33007KT P6SM OVC025
     FM270400 34007KT P6SM SCT035 BKN150
     FM271300 34010KT P6SM VCSH BKN025
     FM271600 34012G22KT P6SM VCSH BKN035=



000
FTUS41 KILN 261700
TAFLUK
TAF
KLUK 261738Z 2618/2718 33007KT P6SM VCSH SCT010 OVC015
     FM262300 33004KT P6SM OVC025
     FM270300 34004KT P6SM SCT035 BKN150
     FM271200 34007KT P6SM VCSH BKN025
     FM271700 34010G20KT P6SM VCSH BKN035=



000
FTUS41 KILN 261700
TAFCVG
TAF
KCVG 261738Z 2618/2724 34010KT P6SM VCSH BKN010 OVC015
     FM262000 32011KT P6SM OVC015
     FM270000 33007KT P6SM OVC025
     FM270300 34007KT P6SM SCT035 BKN150
     FM271200 34010KT P6SM VCSH BKN025
     FM271700 34012G22KT P6SM VCSH BKN035=



000
FTUS41 KILN 261700
TAFDAY
TAF
KDAY 261738Z 2618/2718 32008KT P6SM -RA BKN009 OVC013
     FM262000 32011KT P6SM OVC015
     FM270000 33007KT P6SM OVC025
     FM270300 34007KT P6SM SCT035 BKN150
     FM271300 34010KT P6SM VCSH BKN025
     FM271600 34012G22KT P6SM VCSH BKN035=



000
FTUS41 KILN 261700
TAFCMH
TAF
KCMH 261738Z 2618/2718 33010KT P6SM VCSH BKN009 OVC015
     FM262100 32011KT P6SM OVC015
     FM270200 33007KT P6SM OVC025
     FM270500 34007KT P6SM SCT035 BKN150
     FM271300 34010KT P6SM VCSH BKN035
     FM271700 34012G22KT P6SM VCSH BKN035=



000
FTUS41 KILN 261700
TAFLUK
TAF
KLUK 261738Z 2618/2718 33007KT P6SM VCSH SCT010 OVC015
     FM262300 33004KT P6SM OVC025
     FM270300 34004KT P6SM SCT035 BKN150
     FM271200 34007KT P6SM VCSH BKN025
     FM271700 34010G20KT P6SM VCSH BKN035=



000
FTUS41 KILN 261700
TAFCMH
TAF
KCMH 261738Z 2618/2718 33010KT P6SM VCSH BKN009 OVC015
     FM262100 32011KT P6SM OVC015
     FM270200 33007KT P6SM OVC025
     FM270500 34007KT P6SM SCT035 BKN150
     FM271300 34010KT P6SM VCSH BKN035
     FM271700 34012G22KT P6SM VCSH BKN035=



000
FTUS41 KILN 261700
TAFLCK
TAF
KLCK 261738Z 2618/2718 33010KT P6SM VCSH OVC015
     FM262100 32011KT P6SM OVC015
     FM270200 33007KT P6SM OVC025
     FM270500 34007KT P6SM SCT035 BKN150
     FM271300 34010KT P6SM VCSH BKN035
     FM271700 34012G22KT P6SM VCSH BKN035=



000
FTUS41 KILN 261700
TAFDAY
TAF
KDAY 261738Z 2618/2718 32008KT P6SM -RA BKN009 OVC013
     FM262000 32011KT P6SM OVC015
     FM270000 33007KT P6SM OVC025
     FM270300 34007KT P6SM SCT035 BKN150
     FM271300 34010KT P6SM VCSH BKN025
     FM271600 34012G22KT P6SM VCSH BKN035=



000
FTUS41 KILN 261700
TAFILN
TAF
KILN 261738Z 2618/2718 35011KT 6SM -RA BR FEW007 OVC015
     FM262100 32011KT P6SM OVC015
     FM270100 33007KT P6SM OVC025
     FM270400 34007KT P6SM SCT035 BKN150
     FM271300 34010KT P6SM VCSH BKN025
     FM271600 34012G22KT P6SM VCSH BKN035=



000
FTUS41 KILN 261700
TAFCVG
TAF
KCVG 261738Z 2618/2724 34010KT P6SM VCSH BKN010 OVC015
     FM262000 32011KT P6SM OVC015
     FM270000 33007KT P6SM OVC025
     FM270300 34007KT P6SM SCT035 BKN150
     FM271200 34010KT P6SM VCSH BKN025
     FM271700 34012G22KT P6SM VCSH BKN035=



    US Dept of Commerce
    National Oceanic and Atmospheric Administration
    National Weather Service
    1325 East West Highway
    Silver Spring, MD 20910
    Page Author: NWS Internet Services Team
Disclaimer
Information Quality
Credits
Glossary
Privacy Policy
Freedom of Information Act (FOIA)
About Us
Career Opportunities